Sandflaesa — LM5781 — position and weather

sailwx.info

Track history (hours):
 
Tides and Currents Weather Stations Pressure Air Temp Water Temp Dewpoint Dewpoint Depression Visibility Wind Speed Wind Dir Waves Ship Positions

Sandflaesa

Last reported at 2016-Dec-02 14:29 UTC. Time now 2017-Jan-18 16:14 UTC.
Position N 69°59' E 019°43'.
Warning: this ship's position is 47 days out of date.

Length 11 m.

Type: Fishing. MMSI: 257304820.

Date/timePositionNaut miles runAvg speedWind from/ knotsBaromVisibWave heightAir tempDewpointWater temp
2016-Dec-02 14:29N 69°59' E 019°43'4 4.1
2016-Dec-02 13:33N 69°59' E 019°54'5 4.7
2016-Dec-02 12:32N 69°59' E 020°08'4 4.4
2016-Dec-02 11:32N 69°58' E 020°21'5 4.7
2016-Dec-02 10:32N 69°57' E 020°34'5 5.0
2016-Dec-02 09:33N 69°55' E 020°48'4 3.9
2016-Dec-02 08:33N 69°57' E 020°58'5 4.6
2016-Dec-02 07:32N 69°60' E 021°09'4 4.0
2016-Dec-02 06:31N 70°02' E 021°20'0 0.2
2016-Dec-02 05:03N 70°02' E 021°21'3 3.1
2016-Dec-02 04:13N 70°01' E 021°13'2 2.9
2016-Dec-02 03:33N 70°02' E 021°08'0 0.3
2016-Dec-02 02:31N 70°02' E 021°07'3 0.1
2016-Dec-01 07:19N 70°02' E 020°59'2 3.1
2016-Dec-01 06:32N 70°00' E 021°04'3 3.3
2016-Dec-01 05:30N 69°58' E 021°10'2 1.8
2016-Dec-01 04:34N 69°56' E 021°10'2 1.7
2016-Dec-01 03:31N 69°57' E 021°07'32 3.1
2016-Nov-30 17:19N 70°02' E 019°35'3 4.3
2016-Nov-30 16:33N 69°59' E 019°41'4 4.1
2016-Nov-30 15:28N 69°56' E 019°33'5 5.7
2016-Nov-30 14:33N 69°52' E 019°25'4 3.8
2016-Nov-30 13:33N 69°48' E 019°19'6 5.7
2016-Nov-30 12:33N 69°45' E 019°06'5 4.7
2016-Nov-30 11:33N 69°40' E 019°01'2 1.7
2016-Nov-30 10:33N 69°39' E 018°58'0 0.0
2016-Nov-30 09:33N 69°39' E 018°58'0 0.0
2016-Nov-30 08:32N 69°39' E 018°58'0 0.0
2016-Nov-30 07:31N 69°39' E 018°58'0 0.0
2016-Nov-30 06:32N 69°39' E 018°58'0 0.0
2016-Nov-30 05:33N 69°39' E 018°58'0 0.0
2016-Nov-30 04:33N 69°39' E 018°58'0 0.0
2016-Nov-30 03:33N 69°39' E 018°58'0 0.0
2016-Nov-30 02:32N 69°39' E 018°58'0 0.0
2016-Nov-30 01:31N 69°39' E 018°58'0 0.0
2016-Nov-30 00:33N 69°39' E 018°58'0 0.0
2016-Nov-29 23:31N 69°39' E 018°58'0 0.0
2016-Nov-29 22:30N 69°39' E 018°58'0 0.0
2016-Nov-29 21:33N 69°39' E 018°58'0 0.0
2016-Nov-29 20:31N 69°39' E 018°58'0 0.0
2016-Nov-29 19:31N 69°39' E 018°58'0 0.0
2016-Nov-29 18:31N 69°39' E 018°58'0 0.0
2016-Nov-29 17:33N 69°39' E 018°58'0 0.0
2016-Nov-29 16:33N 69°39' E 018°58'0 0.0
2016-Nov-29 15:31N 69°39' E 018°58'0 0.0
2016-Nov-29 14:33N 69°39' E 018°58'0 0.0
2016-Nov-29 13:32N 69°39' E 018°58'0 0.0
2016-Nov-29 12:27N 69°39' E 018°58'0 0.0
2016-Nov-29 11:33N 69°39' E 018°58'0 0.0
2016-Nov-29 10:32N 69°39' E 018°58'0 0.0
2016-Nov-29 09:32N 69°39' E 018°58'0 0.0
2016-Nov-29 08:32N 69°39' E 018°58'0 0.0
2016-Nov-29 07:33N 69°39' E 018°58'0 0.0
2016-Nov-29 06:33N 69°39' E 018°58'0 0.0
2016-Nov-29 05:33N 69°39' E 018°58'0 0.0
2016-Nov-29 04:33N 69°39' E 018°58'0 0.0
2016-Nov-29 03:33N 69°39' E 018°58'0 0.0
2016-Nov-29 02:33N 69°39' E 018°58'0 0.0
2016-Nov-29 01:30N 69°39' E 018°58'0 0.0
2016-Nov-29 00:32N 69°39' E 018°58'0 0.0
2016-Nov-28 23:32N 69°39' E 018°58'0 0.0
2016-Nov-28 22:32N 69°39' E 018°58'0 0.0
2016-Nov-28 21:31N 69°39' E 018°58'0 0.0
2016-Nov-28 20:32N 69°39' E 018°58'0 0.0
2016-Nov-28 19:31N 69°39' E 018°58'0 0.0
2016-Nov-28 18:32N 69°39' E 018°58'0 0.0
2016-Nov-28 17:33N 69°39' E 018°58'0 0.0
2016-Nov-28 16:33N 69°39' E 018°58'0 0.0
2016-Nov-28 15:31N 69°39' E 018°58'0 0.0
2016-Nov-28 14:32N 69°39' E 018°58'0 0.0
2016-Nov-28 13:30N 69°39' E 018°58'0 0.0
2016-Nov-28 12:30N 69°39' E 018°58'0 0.0
2016-Nov-28 11:31N 69°39' E 018°58'0 0.0
2016-Nov-28 10:32N 69°39' E 018°58'0 0.0
2016-Nov-28 09:33N 69°39' E 018°58'0 0.0
2016-Nov-28 08:33N 69°39' E 018°58'0 0.0
2016-Nov-28 07:33N 69°39' E 018°58'0 0.0
2016-Nov-28 06:33N 69°39' E 018°58'0 0.0
2016-Nov-28 05:33N 69°39' E 018°58'0 0.0
2016-Nov-28 04:30N 69°39' E 018°58'0 0.0
2016-Nov-28 03:32N 69°39' E 018°58'0 0.0
2016-Nov-28 02:31N 69°39' E 018°58'0 0.0
2016-Nov-28 01:33N 69°39' E 018°58'0 0.0
2016-Nov-28 00:33N 69°39' E 018°58'0 0.0
2016-Nov-27 23:33N 69°39' E 018°58'0 0.0
2016-Nov-27 22:32N 69°39' E 018°58'0 0.0
2016-Nov-27 21:33N 69°39' E 018°58'0 0.0
2016-Nov-27 20:32N 69°39' E 018°58'0 0.0
2016-Nov-27 19:32N 69°39' E 018°58'0 0.0
2016-Nov-27 18:33N 69°39' E 018°58'0 0.0
2016-Nov-27 17:31N 69°39' E 018°58'0 0.0
2016-Nov-27 16:33N 69°39' E 018°58'0 0.0
2016-Nov-27 15:32N 69°39' E 018°58'0 0.0
2016-Nov-27 14:32N 69°39' E 018°58'0 0.0
2016-Nov-27 13:33N 69°39' E 018°58'0 0.0
2016-Nov-27 12:33N 69°39' E 018°58'0 0.0
2016-Nov-27 11:31N 69°39' E 018°58'0 0.0
2016-Nov-27 10:31N 69°39' E 018°58'0 0.0
2016-Nov-27 09:32N 69°39' E 018°58'0 0.0
2016-Nov-27 08:33N 69°39' E 018°58'0 0.0
2016-Nov-27 07:32N 69°39' E 018°58'0 0.0
2016-Nov-27 06:30N 69°39' E 018°58'0 0.0
2016-Nov-27 05:32N 69°39' E 018°58'0 0.0
2016-Nov-27 04:32N 69°39' E 018°58'0 0.0
2016-Nov-27 03:31N 69°39' E 018°58'0 0.0
2016-Nov-27 02:33N 69°39' E 018°58'0 0.0
2016-Nov-27 01:33N 69°39' E 018°58'0 0.0
2016-Nov-27 00:33N 69°39' E 018°58'0 0.0
2016-Nov-26 23:33N 69°39' E 018°58'0 0.0
2016-Nov-26 22:32N 69°39' E 018°58'0 0.0
2016-Nov-26 21:32N 69°39' E 018°58'0 0.0
2016-Nov-26 20:33N 69°39' E 018°58'0 0.0
2016-Nov-26 19:33N 69°39' E 018°58'0 0.0
2016-Nov-26 18:31N 69°39' E 018°58'0 0.0
2016-Nov-26 17:32N 69°39' E 018°58'0 0.0
2016-Nov-26 16:33N 69°39' E 018°58'0 0.0
2016-Nov-26 15:33N 69°39' E 018°58'0 0.0
2016-Nov-26 14:32N 69°39' E 018°58'0 0.0
2016-Nov-26 13:33N 69°39' E 018°58'0 0.0
2016-Nov-26 12:32N 69°39' E 018°58'0 0.0
2016-Nov-26 11:32N 69°39' E 018°58'0 0.0
2016-Nov-26 10:32N 69°39' E 018°58'0 0.0
2016-Nov-26 09:30N 69°39' E 018°58'0 0.0
2016-Nov-26 08:32N 69°39' E 018°58'0 0.0
2016-Nov-26 07:33N 69°39' E 018°58'0 0.0
2016-Nov-26 06:31N 69°39' E 018°58'0 0.0
2016-Nov-26 05:33N 69°39' E 018°58'0 0.0
2016-Nov-26 04:33N 69°39' E 018°58'0 0.0
2016-Nov-26 03:32N 69°39' E 018°58'0 0.0
2016-Nov-26 02:31N 69°39' E 018°58'0 0.0
2016-Nov-26 01:32N 69°39' E 018°58'0 0.0
2016-Nov-26 00:33N 69°39' E 018°58'0 0.0
2016-Nov-25 23:30N 69°39' E 018°58'0 0.0
2016-Nov-25 22:32N 69°39' E 018°58'0 0.0
2016-Nov-25 21:31N 69°39' E 018°58'0 0.0
2016-Nov-25 20:30N 69°39' E 018°58'0 0.0
2016-Nov-25 19:32N 69°39' E 018°58'0 0.0
2016-Nov-25 18:32N 69°39' E 018°58'0 0.0
2016-Nov-25 17:30N 69°39' E 018°58'0 0.0
2016-Nov-25 16:32N 69°39' E 018°58'  
Track history (hours):
 
Tides and Currents Weather Stations Pressure Air Temp Water Temp Dewpoint Dewpoint Depression Visibility Wind Speed Wind Dir Waves Ship Positions

Sandflaesa

Last reported at 2016-Dec-02 14:29 UTC. Time now 2017-Jan-18 16:14 UTC.
Position N 69°59' E 019°43'.
Warning: this ship's position is 47 days out of date.

Length 11 m.

Type: Fishing. MMSI: 257304820.

Date/timePositionNaut miles runAvg speedWind from/ knotsBaromVisibWave heightAir tempDewpointWater temp
2016-Dec-02 14:29N 69°59' E 019°43'4 4.1
2016-Dec-02 13:33N 69°59' E 019°54'5 4.7
2016-Dec-02 12:32N 69°59' E 020°08'4 4.4
2016-Dec-02 11:32N 69°58' E 020°21'5 4.7
2016-Dec-02 10:32N 69°57' E 020°34'5 5.0
2016-Dec-02 09:33N 69°55' E 020°48'4 3.9
2016-Dec-02 08:33N 69°57' E 020°58'5 4.6
2016-Dec-02 07:32N 69°60' E 021°09'4 4.0
2016-Dec-02 06:31N 70°02' E 021°20'0 0.2
2016-Dec-02 05:03N 70°02' E 021°21'3 3.1
2016-Dec-02 04:13N 70°01' E 021°13'2 2.9
2016-Dec-02 03:33N 70°02' E 021°08'0 0.3
2016-Dec-02 02:31N 70°02' E 021°07'3 0.1
2016-Dec-01 07:19N 70°02' E 020°59'2 3.1
2016-Dec-01 06:32N 70°00' E 021°04'3 3.3
2016-Dec-01 05:30N 69°58' E 021°10'2 1.8
2016-Dec-01 04:34N 69°56' E 021°10'2 1.7
2016-Dec-01 03:31N 69°57' E 021°07'32 3.1
2016-Nov-30 17:19N 70°02' E 019°35'3 4.3
2016-Nov-30 16:33N 69°59' E 019°41'4 4.1
2016-Nov-30 15:28N 69°56' E 019°33'5 5.7
2016-Nov-30 14:33N 69°52' E 019°25'4 3.8
2016-Nov-30 13:33N 69°48' E 019°19'6 5.7
2016-Nov-30 12:33N 69°45' E 019°06'5 4.7
2016-Nov-30 11:33N 69°40' E 019°01'2 1.7
2016-Nov-30 10:33N 69°39' E 018°58'0 0.0
2016-Nov-30 09:33N 69°39' E 018°58'0 0.0
2016-Nov-30 08:32N 69°39' E 018°58'0 0.0
2016-Nov-30 07:31N 69°39' E 018°58'0 0.0
2016-Nov-30 06:32N 69°39' E 018°58'0 0.0
2016-Nov-30 05:33N 69°39' E 018°58'0 0.0
2016-Nov-30 04:33N 69°39' E 018°58'0 0.0
2016-Nov-30 03:33N 69°39' E 018°58'0 0.0
2016-Nov-30 02:32N 69°39' E 018°58'0 0.0
2016-Nov-30 01:31N 69°39' E 018°58'0 0.0
2016-Nov-30 00:33N 69°39' E 018°58'0 0.0
2016-Nov-29 23:31N 69°39' E 018°58'0 0.0
2016-Nov-29 22:30N 69°39' E 018°58'0 0.0
2016-Nov-29 21:33N 69°39' E 018°58'0 0.0
2016-Nov-29 20:31N 69°39' E 018°58'0 0.0
2016-Nov-29 19:31N 69°39' E 018°58'0 0.0
2016-Nov-29 18:31N 69°39' E 018°58'0 0.0
2016-Nov-29 17:33N 69°39' E 018°58'0 0.0
2016-Nov-29 16:33N 69°39' E 018°58'0 0.0
2016-Nov-29 15:31N 69°39' E 018°58'0 0.0
2016-Nov-29 14:33N 69°39' E 018°58'0 0.0
2016-Nov-29 13:32N 69°39' E 018°58'0 0.0
2016-Nov-29 12:27N 69°39' E 018°58'0 0.0
2016-Nov-29 11:33N 69°39' E 018°58'0 0.0
2016-Nov-29 10:32N 69°39' E 018°58'0 0.0
2016-Nov-29 09:32N 69°39' E 018°58'0 0.0
2016-Nov-29 08:32N 69°39' E 018°58'0 0.0
2016-Nov-29 07:33N 69°39' E 018°58'0 0.0
2016-Nov-29 06:33N 69°39' E 018°58'0 0.0
2016-Nov-29 05:33N 69°39' E 018°58'0 0.0
2016-Nov-29 04:33N 69°39' E 018°58'0 0.0
2016-Nov-29 03:33N 69°39' E 018°58'0 0.0
2016-Nov-29 02:33N 69°39' E 018°58'0 0.0
2016-Nov-29 01:30N 69°39' E 018°58'0 0.0
2016-Nov-29 00:32N 69°39' E 018°58'0 0.0
2016-Nov-28 23:32N 69°39' E 018°58'0 0.0
2016-Nov-28 22:32N 69°39' E 018°58'0 0.0
2016-Nov-28 21:31N 69°39' E 018°58'0 0.0
2016-Nov-28 20:32N 69°39' E 018°58'0 0.0
2016-Nov-28 19:31N 69°39' E 018°58'0 0.0
2016-Nov-28 18:32N 69°39' E 018°58'0 0.0
2016-Nov-28 17:33N 69°39' E 018°58'0 0.0
2016-Nov-28 16:33N 69°39' E 018°58'0 0.0
2016-Nov-28 15:31N 69°39' E 018°58'0 0.0
2016-Nov-28 14:32N 69°39' E 018°58'0 0.0
2016-Nov-28 13:30N 69°39' E 018°58'0 0.0
2016-Nov-28 12:30N 69°39' E 018°58'0 0.0
2016-Nov-28 11:31N 69°39' E 018°58'0 0.0
2016-Nov-28 10:32N 69°39' E 018°58'0 0.0
2016-Nov-28 09:33N 69°39' E 018°58'0 0.0
2016-Nov-28 08:33N 69°39' E 018°58'0 0.0
2016-Nov-28 07:33N 69°39' E 018°58'0 0.0
2016-Nov-28 06:33N 69°39' E 018°58'0 0.0
2016-Nov-28 05:33N 69°39' E 018°58'0 0.0
2016-Nov-28 04:30N 69°39' E 018°58'0 0.0
2016-Nov-28 03:32N 69°39' E 018°58'0 0.0
2016-Nov-28 02:31N 69°39' E 018°58'0 0.0
2016-Nov-28 01:33N 69°39' E 018°58'0 0.0
2016-Nov-28 00:33N 69°39' E 018°58'0 0.0
2016-Nov-27 23:33N 69°39' E 018°58'0 0.0
2016-Nov-27 22:32N 69°39' E 018°58'0 0.0
2016-Nov-27 21:33N 69°39' E 018°58'0 0.0
2016-Nov-27 20:32N 69°39' E 018°58'0 0.0
2016-Nov-27 19:32N 69°39' E 018°58'0 0.0
2016-Nov-27 18:33N 69°39' E 018°58'0 0.0
2016-Nov-27 17:31N 69°39' E 018°58'0 0.0
2016-Nov-27 16:33N 69°39' E 018°58'0 0.0
2016-Nov-27 15:32N 69°39' E 018°58'0 0.0
2016-Nov-27 14:32N 69°39' E 018°58'0 0.0
2016-Nov-27 13:33N 69°39' E 018°58'0 0.0
2016-Nov-27 12:33N 69°39' E 018°58'0 0.0
2016-Nov-27 11:31N 69°39' E 018°58'0 0.0
2016-Nov-27 10:31N 69°39' E 018°58'0 0.0
2016-Nov-27 09:32N 69°39' E 018°58'0 0.0
2016-Nov-27 08:33N 69°39' E 018°58'0 0.0
2016-Nov-27 07:32N 69°39' E 018°58'0 0.0
2016-Nov-27 06:30N 69°39' E 018°58'0 0.0
2016-Nov-27 05:32N 69°39' E 018°58'0 0.0
2016-Nov-27 04:32N 69°39' E 018°58'0 0.0
2016-Nov-27 03:31N 69°39' E 018°58'0 0.0
2016-Nov-27 02:33N 69°39' E 018°58'0 0.0
2016-Nov-27 01:33N 69°39' E 018°58'0 0.0
2016-Nov-27 00:33N 69°39' E 018°58'0 0.0
2016-Nov-26 23:33N 69°39' E 018°58'0 0.0
2016-Nov-26 22:32N 69°39' E 018°58'0 0.0
2016-Nov-26 21:32N 69°39' E 018°58'0 0.0
2016-Nov-26 20:33N 69°39' E 018°58'0 0.0
2016-Nov-26 19:33N 69°39' E 018°58'0 0.0
2016-Nov-26 18:31N 69°39' E 018°58'0 0.0
2016-Nov-26 17:32N 69°39' E 018°58'0 0.0
2016-Nov-26 16:33N 69°39' E 018°58'0 0.0
2016-Nov-26 15:33N 69°39' E 018°58'0 0.0
2016-Nov-26 14:32N 69°39' E 018°58'0 0.0
2016-Nov-26 13:33N 69°39' E 018°58'0 0.0
2016-Nov-26 12:32N 69°39' E 018°58'0 0.0
2016-Nov-26 11:32N 69°39' E 018°58'0 0.0
2016-Nov-26 10:32N 69°39' E 018°58'0 0.0
2016-Nov-26 09:30N 69°39' E 018°58'0 0.0
2016-Nov-26 08:32N 69°39' E 018°58'0 0.0
2016-Nov-26 07:33N 69°39' E 018°58'0 0.0
2016-Nov-26 06:31N 69°39' E 018°58'0 0.0
2016-Nov-26 05:33N 69°39' E 018°58'0 0.0
2016-Nov-26 04:33N 69°39' E 018°58'0 0.0
2016-Nov-26 03:32N 69°39' E 018°58'0 0.0
2016-Nov-26 02:31N 69°39' E 018°58'0 0.0
2016-Nov-26 01:32N 69°39' E 018°58'0 0.0
2016-Nov-26 00:33N 69°39' E 018°58'0 0.0
2016-Nov-25 23:30N 69°39' E 018°58'0 0.0
2016-Nov-25 22:32N 69°39' E 018°58'0 0.0
2016-Nov-25 21:31N 69°39' E 018°58'0 0.0
2016-Nov-25 20:30N 69°39' E 018°58'0 0.0
2016-Nov-25 19:32N 69°39' E 018°58'0 0.0
2016-Nov-25 18:32N 69°39' E 018°58'0 0.0
2016-Nov-25 17:30N 69°39' E 018°58'0 0.0
2016-Nov-25 16:32N 69°39' E 018°58'  

Dump ship's entire track history